Cape San Blas, Florida
Current Conditions -  °F | °C
As of 10:53 AM on Thursday 23 Oct 2014 (Local Time) from KAAF Reporting Station
Clear Clear  
Wind Chill: 71°   Ceiling: Unl
Heat Index: 71°   Visibility: 10mi
Dew Point: 49°   Wind: 9mph
Humidity: 45%   Direction: 60°ENE
Pressure: 30.09"   Gusts: NA
Location:  29.8451°N, 85.2061°W
Report Text: KAAF 231453Z AUTO 06008KT 10SM CLR 22/09 A3009 RMK AO2 SLP189 T02170094 51015 TSNO
Loading
Personal Weather Stations






























Interactive Weather Map
Tropical Storm Tracking
New forecast layout! Learn more

10-Day Weather Forecast

Advertisements
Track Severe Weather on mobile